Time;durP1;ratioP1;P1;durP2;ratioP2;P2;SDS_P1;SDS_P2;PMS_P1;PMS_P2;Temp;Humidity;BMP_temperature;BMP_pressure;BME280_temperature;BME280_humidity;BME280_pressure;Samples;Min_cycle;Max_cycle;Signal;HPM_P1;HPM_P2
2024/01/01 00:00:14;;;;;;;20.93;3.47;;;9.00;99.90;;;;;;7282140;19;20192;-84
2024/01/01 00:02:40;;;;;;;22.27;4.10;;;9.00;99.90;;;;;;7282919;19;20281;-84
2024/01/01 00:05:07;;;;;;;26.73;3.87;;;9.00;99.90;;;;;;7287121;19;20185;-83
2024/01/01 00:07:33;;;;;;;24.47;4.17;;;8.90;99.90;;;;;;7305138;19;20187;-84
2024/01/01 00:09:58;;;;;;;24.97;3.97;;;8.80;99.90;;;;;;7283119;19;20241;-83
2024/01/01 00:12:24;;;;;;;25.13;4.07;;;8.70;99.90;;;;;;7282369;19;20198;-84
2024/01/01 00:14:50;;;;;;;15.13;3.00;;;8.70;99.90;;;;;;7281844;19;20197;-85
2024/01/01 00:17:16;;;;;;;21.10;3.10;;;8.70;99.90;;;;;;7281018;19;20218;-84
2024/01/01 00:19:41;;;;;;;22.47;3.33;;;8.60;99.90;;;;;;7281201;19;20181;-85
2024/01/01 00:22:07;;;;;;;24.03;3.10;;;8.50;99.90;;;;;;7281334;19;20694;-84
2024/01/01 00:24:33;;;;;;;18.03;2.97;;;8.40;99.90;;;;;;7304617;19;20506;-84
2024/01/01 00:26:59;;;;;;;28.90;3.80;;;8.50;99.90;;;;;;7282180;19;20192;-86
2024/01/01 00:29:25;;;;;;;22.17;2.97;;;8.50;99.90;;;;;;7288202;19;20669;-86
2024/01/01 00:31:52;;;;;;;26.70;3.97;;;8.50;99.90;;;;;;7288251;19;20214;-87
2024/01/01 00:34:17;;;;;;;21.87;2.70;;;8.50;99.90;;;;;;7288667;19;20193;-86
2024/01/01 00:36:43;;;;;;;20.90;3.30;;;8.60;99.90;;;;;;7288350;19;20553;-86
2024/01/01 00:39:09;;;;;;;21.60;3.20;;;8.60;99.90;;;;;;7285936;19;20666;-86
2024/01/01 00:41:38;;;;;;;25.50;3.33;;;8.60;99.90;;;;;;7301785;19;20213;-87
2024/01/01 00:44:04;;;;;;;22.40;3.77;;;8.50;99.90;;;;;;7305781;19;20244;-84
2024/01/01 00:46:30;;;;;;;24.87;3.10;;;8.50;99.90;;;;;;7307811;19;20177;-89
2024/01/01 00:48:56;;;;;;;19.70;3.00;;;8.50;99.90;;;;;;7288428;19;20652;-90
2024/01/01 00:51:22;;;;;;;24.53;3.00;;;8.60;99.90;;;;;;7288810;19;20613;-88
2024/01/01 00:53:48;;;;;;;21.37;2.90;;;8.60;99.90;;;;;;7285655;19;20837;-88
2024/01/01 00:56:13;;;;;;;24.07;2.77;;;8.60;99.90;;;;;;7288337;19;20635;-89
2024/01/01 00:58:40;;;;;;;20.57;3.10;;;8.60;99.90;;;;;;7286181;19;20995;-90
2024/01/01 01:01:07;;;;;;;20.87;3.00;;;8.60;99.90;;;;;;7291205;19;20181;-90
2024/01/01 01:03:34;;;;;;;15.90;2.37;;;8.70;99.90;;;;;;7309161;19;20254;-90
2024/01/01 01:06:00;;;;;;;21.03;2.43;;;8.60;99.90;;;;;;7289366;19;20677;-90
2024/01/01 01:08:26;;;;;;;20.93;3.30;;;8.60;99.90;;;;;;7288379;19;20308;-90
2024/01/01 01:10:52;;;;;;;24.80;3.10;;;8.60;99.90;;;;;;7287606;19;20952;-89
2024/01/01 01:13:17;;;;;;;18.40;2.87;;;8.60;99.90;;;;;;7288561;19;20224;-89
2024/01/01 01:15:43;;;;;;;22.57;3.10;;;8.60;99.90;;;;;;7289083;19;20185;-89
2024/01/01 01:18:09;;;;;;;16.67;2.73;;;8.70;99.90;;;;;;7286987;19;20177;-89
2024/01/01 01:20:35;;;;;;;18.47;2.70;;;8.60;99.90;;;;;;7299187;19;20232;-89
2024/01/01 01:23:01;;;;;;;18.73;3.17;;;8.60;99.90;;;;;;7310261;19;20657;-89
2024/01/01 01:25:27;;;;;;;20.87;2.87;;;8.50;99.90;;;;;;7293185;19;20196;-89
2024/01/01 01:27:52;;;;;;;16.87;2.30;;;8.60;99.90;;;;;;7294647;19;20181;-89
2024/01/01 01:30:18;;;;;;;19.77;2.57;;;8.60;99.90;;;;;;7299106;19;20192;-90
2024/01/01 01:32:44;;;;;;;20.00;3.27;;;8.60;99.90;;;;;;7293019;19;20214;-89
2024/01/01 01:35:10;;;;;;;18.63;2.57;;;8.60;99.90;;;;;;7304532;19;20192;-89
2024/01/01 01:37:36;;;;;;;18.17;2.60;;;8.70;99.90;;;;;;7293971;19;20199;-88
2024/01/01 01:40:03;;;;;;;18.37;2.20;;;8.70;99.90;;;;;;7309246;19;20240;-89
2024/01/01 01:42:29;;;;;;;21.20;3.30;;;8.70;99.90;;;;;;7288152;19;20268;-90
2024/01/01 01:44:55;;;;;;;25.53;2.70;;;8.80;99.90;;;;;;7287080;19;20197;-89
2024/01/01 01:47:23;;;;;;;21.40;2.77;;;8.70;99.90;;;;;;7288909;19;20863;-89
2024/01/01 01:49:49;;;;;;;20.13;3.30;;;8.70;99.90;;;;;;7287064;19;20192;-89
2024/01/01 01:52:15;;;;;;;19.40;2.53;;;8.70;99.90;;;;;;7288005;19;20193;-90
2024/01/01 01:54:45;;;;;;;18.00;2.40;;;8.70;99.90;;;;;;7288969;19;20192;-90
2024/01/01 01:57:13;;;;;;;19.63;2.70;;;8.70;99.90;;;;;;7286852;19;20193;-89
2024/01/01 01:59:43;;;;;;;16.83;2.23;;;8.70;99.90;;;;;;7288002;19;20200;-89
2024/01/01 02:02:10;;;;;;;16.30;2.53;;;8.70;99.90;;;;;;7287359;19;20180;-89
2024/01/01 02:04:36;;;;;;;15.27;2.37;;;8.80;99.90;;;;;;7292331;19;20191;-89
2024/01/01 02:07:01;;;;;;;14.83;2.40;;;8.80;99.90;;;;;;7308966;19;20276;-90
2024/01/01 02:09:28;;;;;;;19.23;2.43;;;8.90;99.90;;;;;;7286852;19;20218;-90
2024/01/01 02:11:53;;;;;;;18.23;2.60;;;8.90;99.90;;;;;;7287682;19;20641;-90
2024/01/01 02:14:19;;;;;;;16.20;2.00;;;9.00;99.90;;;;;;7287031;19;20189;-90
2024/01/01 02:16:45;;;;;;;18.93;2.47;;;9.00;99.90;;;;;;7286212;19;20669;-89
2024/01/01 02:19:22;;;;;;;15.83;2.30;;;9.00;99.90;;;;;;7286607;19;20186;-90
2024/01/01 02:21:50;;;;;;;17.27;2.30;;;9.00;99.90;;;;;;7283734;19;20199;-90
2024/01/01 02:24:16;;;;;;;18.93;2.70;;;9.00;99.90;;;;;;7287359;19;20185;-90
2024/01/01 02:26:45;;;;;;;19.60;2.90;;;9.00;99.90;;;;;;7286178;19;20637;-90
2024/01/01 02:29:12;;;;;;;18.87;2.93;;;9.00;99.90;;;;;;7287034;19;20291;-90
2024/01/01 02:31:38;;;;;;;15.33;2.57;;;8.90;99.90;;;;;;7285547;19;20190;-89
2024/01/01 02:34:04;;;;;;;18.77;2.73;;;8.90;99.90;;;;;;7307554;19;20279;-90
2024/01/01 02:36:35;;;;;;;24.50;2.93;;;8.80;99.90;;;;;;7286232;19;20192;-90
2024/01/01 02:39:01;;;;;;;17.00;2.30;;;8.70;99.90;;;;;;7285713;19;20195;-90
2024/01/01 02:41:26;;;;;;;18.30;2.47;;;8.70;99.90;;;;;;7284804;19;20204;-90
2024/01/01 02:43:52;;;;;;;13.77;2.47;;;8.70;99.90;;;;;;7286598;19;20605;-90
2024/01/01 02:46:18;;;;;;;15.70;2.30;;;8.60;99.90;;;;;;7286292;19;20188;-90
2024/01/01 02:48:44;;;;;;;16.40;2.30;;;8.60;99.90;;;;;;7286208;19;20189;-91
2024/01/01 02:51:09;;;;;;;12.40;1.93;;;8.50;99.90;;;;;;7283719;19;20541;-90
2024/01/01 02:53:35;;;;;;;16.17;2.30;;;8.60;99.90;;;;;;7296873;19;20181;-90
2024/01/01 02:56:01;;;;;;;15.30;2.43;;;8.60;99.90;;;;;;7304671;19;20185;-90
2024/01/01 02:58:27;;;;;;;18.97;2.50;;;8.60;99.90;;;;;;7287972;19;20260;-90
2024/01/01 03:00:53;;;;;;;20.80;2.80;;;8.50;99.90;;;;;;7291384;19;20181;-89
2024/01/01 03:03:19;;;;;;;19.83;2.63;;;8.40;99.90;;;;;;7300864;19;20209;-89
2024/01/01 03:05:45;;;;;;;22.83;2.40;;;8.40;99.90;;;;;;7285557;19;20234;-90
2024/01/01 03:08:11;;;;;;;18.77;2.43;;;8.40;99.90;;;;;;7286134;19;20186;-89
2024/01/01 03:10:37;;;;;;;16.57;2.50;;;8.40;99.90;;;;;;7284667;19;20288;-90
2024/01/01 03:13:03;;;;;;;17.27;2.40;;;8.40;99.90;;;;;;7310270;19;20199;-90
2024/01/01 03:15:29;;;;;;;16.03;2.30;;;8.50;99.90;;;;;;7289312;19;20189;-90
2024/01/01 03:17:55;;;;;;;17.17;2.37;;;8.50;99.90;;;;;;7291523;19;20306;-90
2024/01/01 03:20:21;;;;;;;17.67;2.60;;;8.50;99.90;;;;;;7295525;19;20683;-90
2024/01/01 03:22:46;;;;;;;15.03;2.27;;;8.50;99.90;;;;;;7295382;19;20230;-89
2024/01/01 03:25:12;;;;;;;15.83;3.00;;;8.50;99.90;;;;;;7295665;19;20637;-90
2024/01/01 03:27:38;;;;;;;18.53;2.80;;;8.50;99.90;;;;;;7293295;19;20197;-88
2024/01/01 03:30:06;;;;;;;20.43;2.43;;;8.40;99.90;;;;;;7312282;19;20216;-84
2024/01/01 03:32:35;;;;;;;21.57;2.67;;;8.40;99.90;;;;;;7313911;19;20234;-88
2024/01/01 03:35:05;;;;;;;18.90;2.27;;;8.30;99.90;;;;;;7289764;19;20220;-88
2024/01/01 03:37:30;;;;;;;17.43;2.57;;;8.20;99.90;;;;;;7293260;19;20717;-89
2024/01/01 03:39:56;;;;;;;22.77;2.90;;;8.20;99.90;;;;;;7289359;19;20704;-89
2024/01/01 03:42:23;;;;;;;24.70;3.60;;;8.20;99.90;;;;;;7290665;19;20194;-88
2024/01/01 03:44:48;;;;;;;22.10;2.83;;;8.20;99.90;;;;;;7289127;19;20192;-88
2024/01/01 03:47:14;;;;;;;21.03;2.53;;;8.20;99.90;;;;;;7285224;19;20181;-89
2024/01/01 03:49:40;;;;;;;20.07;3.03;;;8.20;99.90;;;;;;7282399;19;20196;-90
2024/01/01 03:52:06;;;;;;;20.03;2.27;;;8.20;99.90;;;;;;7285204;19;20180;-89
2024/01/01 03:54:32;;;;;;;16.33;2.20;;;8.20;99.90;;;;;;7305561;19;20185;-89
2024/01/01 03:56:58;;;;;;;17.50;2.50;;;8.10;99.90;;;;;;7282887;19;20541;-89
2024/01/01 03:59:24;;;;;;;12.80;2.50;;;8.10;99.90;;;;;;7284780;19;20296;-90
2024/01/01 04:01:49;;;;;;;15.07;2.50;;;8.10;99.90;;;;;;7286601;19;20188;-89
2024/01/01 04:04:15;;;;;;;20.17;3.10;;;8.10;99.90;;;;;;7290421;19;20192;-89
2024/01/01 04:06:41;;;;;;;19.10;2.53;;;8.00;99.90;;;;;;7292043;19;20264;-89
2024/01/01 04:09:07;;;;;;;19.67;2.53;;;8.10;99.90;;;;;;7290250;19;20184;-89
2024/01/01 04:11:32;;;;;;;19.07;2.67;;;8.10;99.90;;;;;;7312384;19;20185;-90
2024/01/01 04:13:59;;;;;;;15.90;2.13;;;8.20;99.90;;;;;;7289581;19;20185;-89
2024/01/01 04:16:25;;;;;;;17.00;2.10;;;8.10;99.90;;;;;;7291072;19;20223;-89
2024/01/01 04:18:51;;;;;;;19.33;2.53;;;8.00;99.90;;;;;;7291804;19;20188;-90
2024/01/01 04:21:17;;;;;;;18.37;2.67;;;8.00;99.90;;;;;;7290453;19;20217;-89
2024/01/01 04:23:43;;;;;;;15.23;2.20;;;8.00;99.90;;;;;;7290219;19;20623;-89
2024/01/01 04:26:08;;;;;;;20.17;2.40;;;7.90;99.90;;;;;;7291288;19;20213;-89
2024/01/01 04:28:34;;;;;;;20.93;2.43;;;7.90;99.90;;;;;;7324259;19;20208;-88
2024/01/01 04:31:00;;;;;;;17.70;2.90;;;7.90;99.90;;;;;;7300075;19;20188;-89
2024/01/01 04:33:26;;;;;;;12.20;2.17;;;7.80;99.90;;;;;;7289372;19;20656;-90
2024/01/01 04:35:52;;;;;;;14.57;2.50;;;7.80;99.90;;;;;;7290260;19;20185;-89
2024/01/01 04:38:18;;;;;;;15.33;2.13;;;7.80;99.90;;;;;;7290446;19;20197;-90
2024/01/01 04:40:43;;;;;;;15.57;2.50;;;7.70;99.90;;;;;;7289352;19;20220;-90
2024/01/01 04:43:09;;;;;;;16.83;2.10;;;7.70;99.90;;;;;;7290268;19;21896;-89
2024/01/01 04:45:37;;;;;;;14.13;1.93;;;7.70;99.90;;;;;;7308741;19;20189;-84
2024/01/01 04:48:06;;;;;;;12.83;2.10;;;7.60;99.90;;;;;;7312755;19;20191;-89
2024/01/01 04:50:32;;;;;;;14.77;2.27;;;7.60;99.90;;;;;;7290216;19;20192;-89
2024/01/01 04:52:58;;;;;;;13.00;2.00;;;7.60;99.90;;;;;;7289310;19;20185;-90
2024/01/01 04:55:24;;;;;;;15.97;2.33;;;7.60;99.90;;;;;;7288983;19;20192;-90
2024/01/01 04:57:49;;;;;;;15.37;2.20;;;7.60;99.90;;;;;;7288638;19;20256;-90
2024/01/01 05:00:15;;;;;;;18.20;1.83;;;7.50;99.90;;;;;;7289615;19;20189;-90
2024/01/01 05:02:41;;;;;;;15.17;2.37;;;7.50;99.90;;;;;;7288431;19;20191;-89
2024/01/01 05:05:10;;;;;;;12.50;2.23;;;7.60;99.90;;;;;;7289280;19;20237;-89
2024/01/01 05:07:36;;;;;;;21.67;2.20;;;7.60;99.90;;;;;;7299181;19;20211;-89
2024/01/01 05:10:03;;;;;;;14.00;2.10;;;7.60;99.90;;;;;;7310022;19;20185;-90
2024/01/01 05:12:29;;;;;;;14.40;1.97;;;7.60;99.90;;;;;;7292048;19;20329;-91
2024/01/01 05:14:55;;;;;;;22.07;2.50;;;7.70;99.90;;;;;;7292082;19;20198;-90
2024/01/01 05:17:20;;;;;;;19.87;2.30;;;7.60;99.90;;;;;;7297122;19;20193;-90
2024/01/01 05:19:46;;;;;;;13.83;2.77;;;7.70;99.90;;;;;;7289799;19;20213;-90
2024/01/01 05:22:12;;;;;;;15.93;2.63;;;7.80;99.90;;;;;;7288333;19;20185;-90
2024/01/01 05:24:37;;;;;;;13.00;1.70;;;7.90;99.90;;;;;;7287799;19;20209;-90
2024/01/01 05:27:04;;;;;;;13.17;1.63;;;7.90;99.90;;;;;;7310171;19;20297;-90
2024/01/01 05:29:33;;;;;;;13.83;2.13;;;7.90;99.90;;;;;;7286848;19;20201;-90
2024/01/01 05:31:59;;;;;;;17.83;2.13;;;8.00;99.90;;;;;;7288494;19;20203;-89
2024/01/01 05:34:25;;;;;;;14.27;2.43;;;7.90;99.90;;;;;;7288922;19;20261;-90
2024/01/01 05:36:51;;;;;;;16.07;2.07;;;7.80;99.90;;;;;;7287904;19;20196;-90
2024/01/01 05:39:16;;;;;;;13.90;2.60;;;7.80;99.90;;;;;;7288138;19;20189;-90
2024/01/01 05:41:42;;;;;;;15.23;2.40;;;7.90;99.90;;;;;;7287294;19;20989;-90
2024/01/01 05:44:08;;;;;;;16.30;1.90;;;7.90;99.90;;;;;;7286501;19;20189;-90
2024/01/01 05:46:33;;;;;;;17.07;1.67;;;7.90;99.90;;;;;;7311011;19;20187;-91
2024/01/01 05:48:59;;;;;;;17.07;2.30;;;7.80;99.90;;;;;;7288591;19;20594;-90
2024/01/01 05:51:25;;;;;;;15.97;2.07;;;7.80;99.90;;;;;;7287289;19;20198;-90
2024/01/01 05:53:51;;;;;;;19.50;2.30;;;7.80;99.90;;;;;;7286823;19;20177;-90
2024/01/01 05:56:16;;;;;;;14.83;2.93;;;7.80;99.90;;;;;;7297734;19;20215;-90
2024/01/01 05:58:42;;;;;;;14.90;2.47;;;7.70;99.90;;;;;;7297535;19;20648;-90
2024/01/01 06:01:09;;;;;;;18.13;2.00;;;7.70;99.90;;;;;;7287147;19;20214;-89
2024/01/01 06:03:34;;;;;;;14.03;2.03;;;7.70;99.90;;;;;;7308730;19;20189;-90
2024/01/01 06:06:00;;;;;;;17.83;2.23;;;7.70;99.90;;;;;;7287385;19;20548;-90
2024/01/01 06:08:26;;;;;;;16.90;2.13;;;7.70;99.90;;;;;;7287102;19;20189;-90
2024/01/01 06:10:52;;;;;;;14.90;1.93;;;7.70;99.90;;;;;;7286473;19;20200;-88
2024/01/01 06:13:18;;;;;;;14.80;2.60;;;7.70;99.90;;;;;;7286503;19;20197;-90
2024/01/01 06:15:44;;;;;;;17.30;2.17;;;7.80;99.90;;;;;;7287044;19;20182;-90
2024/01/01 06:18:11;;;;;;;17.27;2.10;;;7.80;99.90;;;;;;7285215;19;20185;-90
2024/01/01 06:20:37;;;;;;;17.63;2.23;;;7.80;99.90;;;;;;7285858;19;20185;-86
2024/01/01 06:23:03;;;;;;;14.53;2.50;;;7.80;99.90;;;;;;7306468;19;20202;-90
2024/01/01 06:25:28;;;;;;;12.97;2.20;;;7.80;99.90;;;;;;7287480;19;20594;-89
2024/01/01 06:27:54;;;;;;;12.47;2.13;;;7.80;99.90;;;;;;7286298;19;25370;-90
2024/01/01 06:30:20;;;;;;;13.10;1.70;;;7.80;99.90;;;;;;7286900;19;21534;-90
2024/01/01 06:32:46;;;;;;;14.20;1.87;;;7.70;99.90;;;;;;7287234;19;20192;-90
2024/01/01 06:35:11;;;;;;;14.27;2.10;;;7.70;99.90;;;;;;7285801;19;20197;-90
2024/01/01 06:37:38;;;;;;;13.60;1.90;;;7.80;99.90;;;;;;7285850;19;20185;-89
2024/01/01 06:40:06;;;;;;;12.03;2.30;;;7.80;99.90;;;;;;7307898;19;20711;-91
2024/01/01 06:42:32;;;;;;;12.73;2.03;;;7.80;99.90;;;;;;7286740;19;20535;-90
2024/01/01 06:45:06;;;;;;;17.93;3.33;;;7.80;99.90;;;;;;7287054;19;20260;-90
2024/01/01 06:47:31;;;;;;;15.03;2.20;;;7.80;99.90;;;;;;7287502;19;20583;-91
2024/01/01 06:49:57;;;;;;;16.17;2.87;;;7.80;99.90;;;;;;7284708;19;20193;-90
2024/01/01 06:52:23;;;;;;;13.37;2.77;;;7.80;99.90;;;;;;7286019;19;20189;-90
2024/01/01 06:54:49;;;;;;;18.70;2.90;;;7.80;99.90;;;;;;7284768;19;20201;-90
2024/01/01 06:57:14;;;;;;;15.87;1.90;;;7.80;99.90;;;;;;7284890;19;20192;-90
2024/01/01 06:59:40;;;;;;;15.23;2.30;;;7.80;99.90;;;;;;7285418;19;20375;-90
2024/01/01 07:02:06;;;;;;;17.70;2.50;;;7.90;99.90;;;;;;7295043;19;20181;-90
2024/01/01 07:04:32;;;;;;;14.20;2.13;;;7.90;99.90;;;;;;7305358;19;20185;-90
2024/01/01 07:06:57;;;;;;;13.57;2.30;;;7.90;99.90;;;;;;7285541;19;20188;-90
2024/01/01 07:09:26;;;;;;;18.20;2.93;;;8.00;99.90;;;;;;7283849;19;20564;-90
2024/01/01 07:11:55;;;;;;;15.53;2.70;;;8.00;99.90;;;;;;7285714;19;20192;-90
2024/01/01 07:14:20;;;;;;;16.17;2.67;;;8.00;99.90;;;;;;7285515;19;20194;-91
2024/01/01 07:16:46;;;;;;;15.70;2.40;;;8.00;99.90;;;;;;7284940;19;20197;-91
2024/01/01 07:19:12;;;;;;;15.87;1.87;;;8.00;99.90;;;;;;7285957;19;20548;-90
2024/01/01 07:21:38;;;;;;;23.87;2.50;;;8.10;99.90;;;;;;7285866;19;20192;-90
2024/01/01 07:24:04;;;;;;;15.67;2.23;;;8.20;99.90;;;;;;7323655;19;20193;-90
2024/01/01 07:26:30;;;;;;;12.83;2.03;;;8.10;99.90;;;;;;7290641;19;20229;-90
2024/01/01 07:28:55;;;;;;;22.50;2.43;;;8.20;99.90;;;;;;7284912;19;20747;-90
2024/01/01 07:31:22;;;;;;;15.33;2.40;;;8.20;99.90;;;;;;7283613;19;20214;-90
2024/01/01 07:33:47;;;;;;;16.53;2.00;;;8.20;99.90;;;;;;7284270;19;20189;-90
2024/01/01 07:36:13;;;;;;;15.20;2.00;;;8.10;99.90;;;;;;7285611;19;20184;-90
2024/01/01 07:38:40;;;;;;;14.80;2.10;;;8.10;99.90;;;;;;7297211;19;20686;-90
2024/01/01 07:41:05;;;;;;;14.30;1.87;;;8.00;99.90;;;;;;7316642;19;20247;-86
2024/01/01 07:43:32;;;;;;;15.23;1.90;;;7.90;99.90;;;;;;7311792;19;20643;-89
2024/01/01 07:45:57;;;;;;;14.63;1.70;;;7.90;99.90;;;;;;7297850;19;20319;-90
2024/01/01 07:48:23;;;;;;;14.80;1.80;;;7.90;99.90;;;;;;7299281;19;20220;-90
2024/01/01 07:50:49;;;;;;;15.63;2.10;;;8.00;99.90;;;;;;7297727;19;20195;-90
2024/01/01 07:53:15;;;;;;;11.23;1.70;;;8.00;99.90;;;;;;7297499;19;20184;-90
2024/01/01 07:55:41;;;;;;;16.93;2.00;;;8.00;99.90;;;;;;7297045;19;20640;-90
2024/01/01 07:58:06;;;;;;;14.97;2.43;;;8.00;99.90;;;;;;7302494;19;20180;-90
2024/01/01 08:00:32;;;;;;;12.70;2.43;;;7.90;99.90;;;;;;7319904;19;20668;-89
2024/01/01 08:02:58;;;;;;;18.47;1.90;;;8.00;99.90;;;;;;7298161;19;20654;-89
2024/01/01 08:05:24;;;;;;;12.90;1.93;;;8.10;99.90;;;;;;7296082;19;20255;-90
2024/01/01 08:07:50;;;;;;;16.43;2.03;;;8.10;99.90;;;;;;7299810;19;20188;-90
2024/01/01 08:10:16;;;;;;;14.83;2.07;;;8.10;99.90;;;;;;7297703;19;20193;-89
2024/01/01 08:12:42;;;;;;;12.70;2.00;;;8.20;99.90;;;;;;7297435;19;20287;-88
2024/01/01 08:15:08;;;;;;;16.43;2.07;;;8.20;99.90;;;;;;7297799;19;20192;-86
2024/01/01 08:17:34;;;;;;;16.20;1.90;;;8.10;99.90;;;;;;7318632;19;20200;-88
2024/01/01 08:20:00;;;;;;;12.13;1.97;;;8.10;99.90;;;;;;7297247;19;20264;-88
2024/01/01 08:22:25;;;;;;;13.20;2.27;;;8.10;99.90;;;;;;7297959;19;20223;-88
2024/01/01 08:24:51;;;;;;;16.17;1.93;;;8.00;99.90;;;;;;7297233;19;20189;-88
2024/01/01 08:27:17;;;;;;;15.40;1.80;;;8.00;99.90;;;;;;7298993;19;20218;-88
2024/01/01 08:29:43;;;;;;;12.83;2.10;;;8.00;99.90;;;;;;7296142;19;20275;-89
2024/01/01 08:32:08;;;;;;;16.10;2.00;;;8.00;99.90;;;;;;7296610;19;20196;-89
2024/01/01 08:34:34;;;;;;;13.50;2.10;;;8.10;99.90;;;;;;7318275;19;20201;-88
2024/01/01 08:37:04;;;;;;;16.03;1.90;;;8.10;99.90;;;;;;7296325;19;20223;-90
2024/01/01 08:39:30;;;;;;;10.13;1.87;;;8.20;99.90;;;;;;7295506;19;20189;-87
2024/01/01 08:41:55;;;;;;;14.73;1.50;;;8.10;99.90;;;;;;7296388;19;20215;-87
2024/01/01 08:44:21;;;;;;;8.40;1.70;;;8.30;99.90;;;;;;7295571;19;20196;-88
2024/01/01 08:46:47;;;;;;;9.93;1.43;;;8.40;99.90;;;;;;7298114;19;20292;-88
2024/01/01 08:49:13;;;;;;;12.63;1.73;;;8.40;99.90;;;;;;7292816;19;20217;-88
2024/01/01 08:51:38;;;;;;;12.40;1.97;;;8.40;99.90;;;;;;7300179;19;20200;-85
2024/01/01 08:54:07;;;;;;;12.03;1.70;;;8.50;99.90;;;;;;7312688;19;20292;-88
2024/01/01 08:56:33;;;;;;;14.07;1.93;;;8.60;99.90;;;;;;7288988;19;20551;-88
2024/01/01 08:58:59;;;;;;;10.87;1.53;;;8.60;99.90;;;;;;7289902;19;20253;-87
2024/01/01 09:01:25;;;;;;;13.27;1.80;;;8.70;99.90;;;;;;7289212;19;20876;-89
2024/01/01 09:03:50;;;;;;;10.27;1.33;;;8.70;99.90;;;;;;7289526;19;20193;-88
2024/01/01 09:06:16;;;;;;;13.03;2.03;;;8.80;99.90;;;;;;7288612;19;20189;-88
2024/01/01 09:08:43;;;;;;;12.97;1.97;;;8.90;99.90;;;;;;7289282;19;20191;-89
2024/01/01 09:11:09;;;;;;;12.17;1.90;;;8.80;99.90;;;;;;7288077;19;20184;-86
2024/01/01 09:13:34;;;;;;;12.23;2.00;;;8.90;99.90;;;;;;7309766;19;20195;-88
2024/01/01 09:16:01;;;;;;;14.00;1.70;;;8.90;99.90;;;;;;7288843;19;20189;-88
2024/01/01 09:18:27;;;;;;;15.33;2.13;;;8.90;99.90;;;;;;7287767;19;20178;-87
2024/01/01 09:20:52;;;;;;;12.73;2.03;;;8.80;99.90;;;;;;7286993;19;20185;-87
2024/01/01 09:23:18;;;;;;;13.13;2.10;;;8.90;99.90;;;;;;7289160;19;20260;-88
2024/01/01 09:25:44;;;;;;;11.80;1.83;;;8.90;99.90;;;;;;7287860;19;20256;-87
2024/01/01 09:28:10;;;;;;;11.77;2.03;;;9.10;99.90;;;;;;7288019;19;20197;-86
2024/01/01 09:30:38;;;;;;;17.40;2.50;;;9.10;99.90;;;;;;7301040;19;20181;-87
2024/01/01 09:33:06;;;;;;;11.47;1.77;;;9.20;99.90;;;;;;7297199;19;20215;-87
2024/01/01 09:35:32;;;;;;;16.97;2.70;;;9.20;99.90;;;;;;7310152;19;20561;-87
2024/01/01 09:37:58;;;;;;;19.17;3.40;;;9.20;99.90;;;;;;7287883;19;20181;-88
2024/01/01 09:40:23;;;;;;;15.83;2.83;;;9.30;99.90;;;;;;7291805;19;20220;-87
2024/01/01 09:42:50;;;;;;;14.20;2.57;;;9.20;99.90;;;;;;7289972;19;20253;-88
2024/01/01 09:45:16;;;;;;;15.33;2.73;;;9.10;99.90;;;;;;7286975;19;20190;-87
2024/01/01 09:47:42;;;;;;;15.67;2.73;;;9.10;99.90;;;;;;7287252;19;20201;-88
2024/01/01 09:50:09;;;;;;;17.37;3.17;;;9.10;99.90;;;;;;7287536;19;20202;-87
2024/01/01 09:52:35;;;;;;;24.83;3.83;;;9.20;99.90;;;;;;7309177;19;20989;-88
2024/01/01 09:55:01;;;;;;;17.17;3.37;;;9.20;99.90;;;;;;7288702;19;20177;-89
2024/01/01 09:57:27;;;;;;;24.40;4.33;;;9.30;99.90;;;;;;7287170;19;20209;-88
2024/01/01 09:59:52;;;;;;;20.73;3.30;;;9.40;99.90;;;;;;7287537;19;20185;-89
2024/01/01 10:02:22;;;;;;;17.40;3.07;;;9.60;99.90;;;;;;7286989;19;20185;-87
2024/01/01 10:04:48;;;;;;;20.63;3.63;;;9.70;99.90;;;;;;7287818;19;20278;-87
2024/01/01 10:07:27;;;;;;;18.13;3.30;;;9.60;99.90;;;;;;7286504;19;20184;-87
2024/01/01 10:09:53;;;;;;;23.63;4.17;;;9.70;99.90;;;;;;7285825;19;20185;-87
2024/01/01 10:12:23;;;;;;;26.97;4.23;;;9.80;99.90;;;;;;7285890;19;20668;-86
2024/01/01 10:14:50;;;;;;;23.37;4.20;;;9.90;99.90;;;;;;7285614;19;20645;-86
2024/01/01 10:17:18;;;;;;;28.07;4.67;;;10.10;99.90;;;;;;7285808;19;20192;-86
2024/01/01 10:19:52;;;;;;;20.90;3.63;;;10.10;99.90;;;;;;7293522;19;20213;-86
2024/01/01 10:22:19;;;;;;;21.63;3.50;;;10.30;99.90;;;;;;7286948;19;20239;-86
2024/01/01 10:24:49;;;;;;;22.27;4.13;;;10.30;99.90;;;;;;7286275;19;20268;-86
2024/01/01 10:27:19;;;;;;;23.97;4.13;;;10.50;99.90;;;;;;7285500;19;20207;-86
2024/01/01 10:29:49;;;;;;;20.83;4.10;;;11.00;99.90;;;;;;7286407;19;20199;-86
2024/01/01 10:32:17;;;;;;;24.43;4.57;;;11.30;99.90;;;;;;7286352;19;20196;-86
2024/01/01 10:34:45;;;;;;;26.80;4.27;;;11.50;99.90;;;;;;7286351;19;20208;-86
2024/01/01 10:37:13;;;;;;;18.53;3.43;;;11.60;99.90;;;;;;7285954;19;20757;-86
2024/01/01 10:39:41;;;;;;;20.67;4.30;;;11.50;99.90;;;;;;7284724;19;20185;-86
2024/01/01 10:42:07;;;;;;;18.40;3.70;;;11.40;99.90;;;;;;7293733;19;20556;-85
2024/01/01 10:44:32;;;;;;;19.87;3.57;;;11.20;99.90;;;;;;7307107;19;20192;-87
2024/01/01 10:47:03;;;;;;;24.97;4.20;;;11.20;99.90;;;;;;7286949;19;20186;-87
2024/01/01 10:49:31;;;;;;;23.67;3.60;;;11.30;99.90;;;;;;7285730;19;20188;-87
2024/01/01 10:52:18;;;;;;;16.93;3.00;;;11.50;99.90;;;;;;7286168;19;20199;-86
2024/01/01 10:55:05;;;;;;;14.40;2.97;;;11.80;99.90;;;;;;7184402;19;2004611;-86
2024/01/01 10:57:33;;;;;;;20.00;3.80;;;11.90;99.90;;;;;;7285862;19;20644;-87
2024/01/01 11:00:07;;;;;;;20.67;3.33;;;12.10;99.90;;;;;;7286474;19;20189;-86
2024/01/01 11:02:33;;;;;;;19.47;3.57;;;12.40;99.90;;;;;;7286417;19;20543;-87
2024/01/01 11:05:10;;;;;;;21.93;3.77;;;12.60;99.90;;;;;;7286783;19;20266;-86
2024/01/01 11:07:54;;;;;;;21.13;3.50;;;12.70;99.90;;;;;;7283998;19;20629;-82
2024/01/01 11:10:42;;;;;;;20.73;3.70;;;12.50;99.90;;;;;;7286559;19;20194;-86
2024/01/01 11:13:26;;;;;;;23.53;4.70;;;12.40;99.90;;;;;;7265165;19;20206;-85
2024/01/01 11:16:05;;;;;;;19.93;3.30;;;11.90;99.90;;;;;;7289173;19;20194;-86
2024/01/01 11:18:39;;;;;;;20.40;3.23;;;11.70;99.90;;;;;;7290620;19;20577;-87
2024/01/01 11:21:07;;;;;;;15.40;2.77;;;11.40;99.90;;;;;;7291368;19;20200;-86
2024/01/01 11:23:42;;;;;;;22.23;3.83;;;10.90;99.90;;;;;;7287226;19;20180;-86
2024/01/01 11:26:25;;;;;;;23.20;3.33;;;10.80;99.90;;;;;;7264977;19;20183;-85
2024/01/01 11:28:51;;;;;;;19.87;3.27;;;10.80;99.90;;;;;;7285336;19;20196;-86
2024/01/01 11:31:17;;;;;;;19.77;3.17;;;10.60;99.90;;;;;;7286096;19;20203;-86
2024/01/01 11:33:43;;;;;;;21.83;3.30;;;10.60;99.90;;;;;;7287460;19;20188;-86
2024/01/01 11:36:09;;;;;;;23.03;3.30;;;10.60;99.90;;;;;;7284271;19;20581;-85
2024/01/01 11:38:38;;;;;;;20.53;3.40;;;10.60;99.90;;;;;;7307936;19;20208;-86
2024/01/01 11:41:04;;;;;;;18.57;3.70;;;10.60;99.90;;;;;;7286428;19;20183;-86
2024/01/01 11:43:33;;;;;;;18.20;3.17;;;10.70;99.90;;;;;;7285994;19;20189;-86
2024/01/01 11:45:59;;;;;;;23.70;3.43;;;10.50;99.90;;;;;;7289385;19;20199;-85
2024/01/01 11:48:25;;;;;;;21.83;3.27;;;10.30;99.90;;;;;;7288551;19;20190;-86
2024/01/01 11:50:53;;;;;;;21.67;4.33;;;10.40;99.90;;;;;;7282665;19;20555;-86
2024/01/01 11:53:19;;;;;;;20.60;2.93;;;10.40;99.90;;;;;;7284342;19;20559;-86
2024/01/01 11:55:45;;;;;;;22.97;3.60;;;10.40;99.90;;;;;;7284375;19;20180;-86
2024/01/01 11:58:12;;;;;;;21.60;3.83;;;10.50;99.90;;;;;;7284351;19;20654;-85
2024/01/01 12:00:39;;;;;;;21.00;3.03;;;10.60;99.90;;;;;;7284262;19;20187;-85
2024/01/01 12:03:05;;;;;;;26.37;3.33;;;10.60;99.90;;;;;;7306049;19;20207;-86
2024/01/01 12:05:32;;;;;;;20.20;2.67;;;10.60;99.90;;;;;;7284853;19;20204;-86
2024/01/01 12:08:00;;;;;;;23.67;3.80;;;10.60;99.90;;;;;;7284490;19;20254;-86
2024/01/01 12:10:27;;;;;;;20.37;3.13;;;10.70;99.90;;;;;;7284010;19;20247;-85
2024/01/01 12:13:01;;;;;;;23.03;3.50;;;10.80;99.90;;;;;;7284628;19;20670;-86
2024/01/01 12:15:31;;;;;;;22.20;3.03;;;10.80;99.90;;;;;;7283823;19;20184;-86
2024/01/01 12:17:56;;;;;;;24.67;3.50;;;10.70;99.90;;;;;;7285052;19;20249;-86
2024/01/01 12:20:23;;;;;;;23.30;3.33;;;10.70;99.90;;;;;;7283676;19;20199;-85
2024/01/01 12:22:50;;;;;;;20.37;3.03;;;10.50;99.90;;;;;;7285273;19;20193;-86
2024/01/01 12:25:17;;;;;;;20.43;3.57;;;10.60;99.90;;;;;;7291562;19;20348;-85
2024/01/01 12:27:44;;;;;;;22.37;3.07;;;10.60;99.90;;;;;;7291115;19;20210;-86
2024/01/01 12:30:24;;;;;;;15.43;2.77;;;10.60;99.90;;;;;;7289864;19;20246;-86
2024/01/01 12:32:50;;;;;;;20.87;3.00;;;10.60;99.90;;;;;;7288640;19;20208;-86
2024/01/01 12:35:16;;;;;;;21.50;3.30;;;10.50;99.90;;;;;;7290134;19;20189;-86
2024/01/01 12:37:41;;;;;;;22.07;3.50;;;10.50;99.90;;;;;;7289567;19;20194;-85
2024/01/01 12:40:07;;;;;;;24.50;3.30;;;10.40;99.90;;;;;;7293940;19;20213;-85
2024/01/01 12:42:33;;;;;;;18.87;3.03;;;10.30;99.90;;;;;;7311346;19;20190;-86